Parks, Arizona
Current Conditions -  °F | °C
As of 6:57 PM on Monday 22 Dec 2014 (Local Time) from KFLG Reporting Station
Broken Clouds Broken Clouds  
Wind Chill: 43°   Ceiling: 6500
Heat Index: 45°   Visibility: 10mi
Dew Point: 29°   Wind: 5mph
Humidity: 53%   Direction: 330°NNW
Pressure: 30.04"   Gusts: NA
Location:  35.26°N, 111.95°W
Report Text: KFLG 230157Z AUTO 33004KT 10SM FEW055 BKN065 07/M02 A3004 RMK AO2 SLP126 T00721017 TSNO
Loading
Personal Weather Stations






























Interactive Weather Map New forecast layout! Learn more

10-Day Weather Forecast

Advertisements
Track Severe Weather on mobile